Flight Track Log - Related Links

Times and Time Zones

All times are in EST time to prevent confusion due to time zone crossing. See the SWA4758 flight status page for this flight to view local times or setup timezone preferences in your user account.

Time Position Orientation Groundspeed Altitude Reporting Facility
EST Latitude Longitude Course Direction KTS MPH feet Rate Location/Type
Fri 01:22:13 AM 39.1875 -76.7056 171° South 140 161 2,600  Level Washington Center
Fri 01:23:13 AM 39.1439 -76.6969 171° South 183 211 6,300 3,049 Climbing Washington Center
Fri 01:24:15 AM 39.1425 -76.6058 91° East 239 275 8,800 2,900 Climbing Washington Center
Fri 01:25:13 AM 39.1456 -76.4828 88° East 286 329 12,100 3,712 Climbing Washington Center
Fri 01:26:13 AM 39.1922 -76.3683 62° Northeast 315 362 16,100 3,750 Climbing Washington Center
Fri 01:27:13 AM 39.2533 -76.2617 53° Northeast 334 384 19,600 3,100 Climbing Washington Center
Fri 01:28:13 AM 39.3186 -76.1417 55° Northeast 364 419 22,300 2,656 Climbing Washington Center
Fri 01:29:15 AM 39.3817 -76.0131 58° Northeast 401 461 25,000 2,579 Climbing Washington Center
Fri 01:30:14 AM 39.4194 -75.8522 73° East 436 502 27,500 2,288 Climbing Washington Center
Fri 01:31:13 AM 39.4553 -75.6831 75° East 463 533 29,500 1,700 Climbing Washington Center
Fri 01:32:14 AM 39.4928 -75.5000 75° East 491 565 30,900 1,650 Climbing Washington Center
Fri 01:33:13 AM 39.5736 -75.3572 54° Northeast 492 566 32,800 2,138 Climbing Washington Center
Fri 01:34:54 AM 39.7347 -75.1900 39° Northeast 492 566 36,600 1,565 Climbing New York Center
Fri 01:35:54 AM 39.8286 -75.0769 43° Northeast 473 544 37,000 198 Climbing New York Center
Fri 01:36:55 AM 39.9331 -74.9561 42° Northeast 460 529 37,000  Level New York Center
Fri 01:37:54 AM 40.0286 -74.8481 41° Northeast 450 518 37,000  Level New York Center
Fri 01:38:54 AM 40.1219 -74.7367 42° Northeast 439 505 37,000  Level New York Center
Fri 01:39:55 AM 40.2086 -74.6411 40° Northeast 444 511 37,000  Level New York Center
Fri 01:40:54 AM 40.3189 -74.5111 42° Northeast 457 526 37,000  Level New York Center
Fri 01:43:04 AM 40.5267 -74.2667 42° Northeast 457 526 37,000  Level Boston Center
Fri 01:44:04 AM 40.6222 -74.1517 42° Northeast 457 526 37,000  Level Boston Center
Fri 01:45:04 AM 40.7156 -74.0419 42° Northeast 452 520 37,000  Level Boston Center
Fri 01:46:04 AM 40.8044 -73.9453 39° Northeast 452 520 37,000  Level Boston Center
Fri 01:47:04 AM 40.8997 -73.8322 42° Northeast 452 520 37,000  Level Boston Center
Fri 01:48:04 AM 40.9928 -73.7161 43° Northeast 452 520 37,000  Level Boston Center
Fri 01:49:04 AM 41.0878 -73.6050 41° Northeast 452 520 37,000  Level Boston Center
Fri 01:50:04 AM 41.1806 -73.4936 42° Northeast 452 520 37,000  Level Boston Center
Fri 01:51:04 AM 41.2817 -73.3708 42° Northeast 446 513 37,000  Level Boston Center
Fri 01:52:04 AM 41.3742 -73.2589 42° Northeast 446 513 37,000  Level Boston Center
Fri 01:53:04 AM 41.4667 -73.1436 43° Northeast 446 513 37,000 -350 Level Boston Center
Fri 01:54:04 AM 41.5444 -73.0447 44° Northeast 446 513 36,300 -1,350 Descending Boston Center
Fri 01:55:04 AM 41.6386 -72.9289 43° Northeast 441 507 34,300 -2,300 Descending Boston Center
Fri 01:56:04 AM 41.7308 -72.8156 43° Northeast 447 514 31,700 -2,900 Descending Boston Center
Fri 01:57:04 AM 41.8333 -72.6853 43° Northeast 459 528 28,500 -3,400 Descending Boston Center
Fri 01:58:04 AM 41.9125 -72.5908 42° Northeast 450 518 24,900 -3,250 Descending Boston Center
Fri 01:59:04 AM 42.0022 -72.4764 43° Northeast 444 511 22,000 -2,450 Descending Boston Center
Fri 02:00:04 AM 42.0856 -72.3731 43° Northeast 425 489 20,000 -1,850 Descending Boston Center
Fri 02:01:04 AM 42.1689 -72.2692 43° Northeast 386 444 18,300 -1,900 Descending Boston Center
Fri 02:02:04 AM 42.2397 -72.1794 43° Northeast 345 397 16,200 -1,800 Descending Boston Center
Fri 02:03:04 AM 42.3061 -72.0919 44° Northeast 336 387 14,700 -1,450 Descending Boston Center
Fri 02:04:04 AM 42.3642 -72.0158 44° Northeast 326 375 13,300 -1,650 Descending Boston Center
Fri 02:05:04 AM 42.4347 -71.9281 43° Northeast 315 362 11,400 -1,400 Descending Boston Center
Fri 02:06:04 AM 42.4906 -71.8572 43° Northeast 309 356 10,500 -1,050 Descending Boston Center
Fri 02:07:04 AM 42.5547 -71.7750 43° Northeast 297 342 9,300 -1,009 Descending Boston Center
Fri 02:09:00 AM 42.7090 -71.6930 43° Northeast  Level FlightAware Approximate
Fri 02:13:30 AM 42.7833 -71.3500 44° Northeast 171 197 3,000  Level KA90
Fri 02:14:04 AM 42.8058 -71.3592 343° North 162 186 2,800 -638 Descending Boston Center
Fri 02:15:04 AM 42.8456 -71.3839 335° Northwest 146 168 2,000 -700 Descending Boston Center
Fri 02:16:00 AM 42.9167 -71.4333 44° Northeast  Level FlightAware Approximate
Fri 02:16:04 AM 42.8708 -71.3975 338° Northwest 122 140 1,400  Level Boston Center
Fri 02:17:00 AM 42.9328 -71.4358 44° Northeast  Level Estimated
Fri 02:17:04 AM 42.9022 -71.4169 336° Northwest 117 135 700  Level Boston Center
Fri 02:18:00 AM 42.9328 -71.4358 44° Northeast  Level Estimated
Fri 02:18:04 AM 42.9336 -71.4361 336° Northwest 117 135 400  Level Boston Center
Fri 02:19:04 AM 42.9650 -71.4583 333° Northwest 117 135 7,000 3,300 Climbing Boston Center
Fri 02:20:04 AM 42.9967 -71.4778 336° Northwest 117 135 7,000  Level Boston Center

Login

Don't have an account? Register now (free) for customized features, flight alerts, and more!